Time;durP1;ratioP1;P1;durP2;ratioP2;P2;SDS_P1;SDS_P2;PMS_P1;PMS_P2;Temp;Humidity;BMP_temperature;BMP_pressure;BME280_temperature;BME280_humidity;BME280_pressure;Samples;Min_cycle;Max_cycle;Signal;HPM_P1;HPM_P2
2022/04/04 00:00:45;;;;;;;3.88;1.60;;;;;;;1.87;74.88;101841.06;10544019;28;20052;-76
2022/04/04 00:05:48;;;;;;;10.88;3.22;;;;;;;1.99;74.73;101835.13;10509485;28;20494;-76
2022/04/04 00:10:49;;;;;;;3.53;2.08;;;;;;;2.12;74.33;101832.75;10543822;28;20090;-77
2022/04/04 00:15:51;;;;;;;2.38;1.75;;;;;;;2.11;74.18;101819.91;10525792;28;20082;-76
2022/04/04 00:20:53;;;;;;;2.08;1.33;;;;;;;2.27;74.23;101809.25;10543791;28;20051;-75
2022/04/04 00:25:54;;;;;;;0.20;0.20;;;;;;;2.41;73.71;101800.97;10525320;28;20131;-77
2022/04/04 00:30:56;;;;;;;0.90;0.75;;;;;;;2.30;74.10;101796.75;10550008;28;20457;-77
2022/04/04 00:35:58;;;;;;;3.60;1.92;;;;;;;2.12;73.90;101791.19;10525135;28;20079;-76
2022/04/04 00:40:59;;;;;;;1.15;0.40;;;;;;;2.11;74.32;101785.22;10524837;28;20043;-76
2022/04/04 00:46:01;;;;;;;4.82;2.72;;;;;;;2.04;74.47;101772.84;10524499;28;20044;-77
2022/04/04 00:51:03;;;;;;;4.38;1.52;;;;;;;2.15;73.79;101771.09;10542166;28;20050;-78
2022/04/04 00:56:07;;;;;;;1.83;0.88;;;;;;;2.05;74.12;101769.50;10524602;28;20083;-76
2022/04/04 01:01:09;;;;;;;1.33;1.05;;;;;;;2.02;74.16;101748.94;10540281;28;20048;-77
2022/04/04 01:06:10;;;;;;;1.10;0.65;;;;;;;2.16;73.89;101738.16;10523244;28;20043;-77
2022/04/04 01:11:12;;;;;;;5.60;1.33;;;;;;;2.22;73.79;101727.53;10522801;28;20076;-77
2022/04/04 01:16:14;;;;;;;1.08;0.82;;;;;;;2.20;73.64;101724.88;10541150;28;20111;-76
2022/04/04 01:21:19;;;;;;;3.42;1.58;;;;;;;2.15;73.89;101716.03;10538829;28;20142;-76
2022/04/04 01:26:21;;;;;;;1.55;0.90;;;;;;;2.18;74.04;101705.19;10528468;28;20064;-77
2022/04/04 01:31:23;;;;;;;2.40;1.58;;;;;;;2.14;73.86;101691.38;10540424;28;20071;-77
2022/04/04 01:36:24;;;;;;;3.45;1.92;;;;;;;2.09;74.28;101689.25;10538935;28;20082;-76
2022/04/04 01:41:26;;;;;;;2.97;1.30;;;;;;;2.12;74.44;101675.16;10539992;28;20093;-76
2022/04/04 01:46:28;;;;;;;2.45;1.10;;;;;;;2.29;74.19;101662.75;10540481;28;20032;-76
2022/04/04 01:51:32;;;;;;;3.90;2.33;;;;;;;2.31;74.43;101653.56;10521836;28;20044;-77
2022/04/04 01:56:34;;;;;;;3.90;2.30;;;;;;;2.13;73.87;101636.22;10539566;28;20479;-76
2022/04/04 02:01:36;;;;;;;5.45;3.67;;;;;;;2.27;73.99;101631.25;10521563;28;20109;-77
2022/04/04 02:06:38;;;;;;;8.20;3.83;;;;;;;2.35;73.76;101618.31;10539415;28;20127;-77
2022/04/04 02:11:40;;;;;;;4.00;2.70;;;;;;;2.39;72.99;101604.16;10539392;28;20592;-77
2022/04/04 02:16:42;;;;;;;5.35;2.42;;;;;;;2.59;71.56;101591.94;10538000;28;20076;-76
2022/04/04 02:21:45;;;;;;;7.30;3.97;;;;;;;2.52;71.92;101577.91;10540268;28;20115;-76
2022/04/04 02:26:46;;;;;;;7.88;3.70;;;;;;;2.55;72.04;101573.03;10538410;28;20601;-77
2022/04/04 02:31:48;;;;;;;5.28;3.33;;;;;;;2.66;71.32;101558.50;10540666;28;20097;-78
2022/04/04 02:36:49;;;;;;;7.05;4.30;;;;;;;2.59;70.53;101546.13;10585639;28;20043;-76
2022/04/04 02:41:51;;;;;;;2.42;1.58;;;;;;;2.62;70.46;101541.28;10554078;28;20551;-76
2022/04/04 02:46:53;;;;;;;3.42;1.92;;;;;;;2.92;69.44;101536.50;10528947;28;20131;-77
2022/04/04 02:51:55;;;;;;;9.00;4.70;;;;;;;2.93;69.20;101523.00;10528496;28;20044;-77
2022/04/04 02:56:57;;;;;;;6.20;3.35;;;;;;;2.90;68.93;101512.59;10562269;28;20128;-77
2022/04/04 03:01:59;;;;;;;10.80;6.32;;;;;;;2.90;68.72;101499.88;10527839;28;20119;-77
2022/04/04 03:07:00;;;;;;;5.07;2.78;;;;;;;3.05;67.61;101494.91;10545643;28;20085;-77
2022/04/04 03:12:02;;;;;;;6.95;2.30;;;;;;;3.29;66.62;101482.91;10527317;28;20044;-77
2022/04/04 03:17:04;;;;;;;6.82;4.15;;;;;;;3.06;66.33;101455.94;10527232;28;20162;-76
2022/04/04 03:22:05;;;;;;;8.85;5.30;;;;;;;3.22;66.21;101460.38;10527019;28;20055;-77
2022/04/04 03:27:07;;;;;;;6.00;3.60;;;;;;;3.29;65.94;101452.34;10527237;28;20483;-77
2022/04/04 03:32:08;;;;;;;5.78;3.88;;;;;;;3.24;65.73;101428.25;10527099;28;20055;-77
2022/04/04 03:37:11;;;;;;;3.70;2.40;;;;;;;3.41;65.65;101427.63;10526519;28;20487;-77
2022/04/04 03:42:12;;;;;;;6.65;5.10;;;;;;;3.33;65.84;101416.09;10543582;28;20131;-76
2022/04/04 03:47:14;;;;;;;6.78;4.00;;;;;;;3.30;65.89;101405.72;10544399;28;20119;-77
2022/04/04 03:52:16;;;;;;;3.75;2.45;;;;;;;3.29;65.67;101401.41;10544237;28;20079;-76
2022/04/04 03:57:18;;;;;;;12.02;6.53;;;;;;;3.10;65.85;101378.97;10543614;28;20469;-78
2022/04/04 04:02:20;;;;;;;6.05;3.42;;;;;;;3.21;66.15;101383.06;10525183;28;20075;-77
2022/04/04 04:07:25;;;;;;;6.75;4.38;;;;;;;3.08;66.83;101376.34;10525444;28;20487;-78
2022/04/04 04:12:27;;;;;;;7.60;3.80;;;;;;;3.36;66.08;101362.81;10541355;28;20105;-76
2022/04/04 04:17:29;;;;;;;5.47;3.95;;;;;;;3.38;65.47;101356.16;10524345;28;20055;-77
2022/04/04 04:22:31;;;;;;;9.23;4.70;;;;;;;3.54;64.54;101331.63;10523725;28;20044;-76
2022/04/04 04:27:33;;;;;;;11.40;5.05;;;;;;;3.57;64.70;101332.69;10541653;28;20036;-77
2022/04/04 04:32:35;;;;;;;4.40;2.20;;;;;;;3.73;64.04;101316.66;10540348;28;20483;-76
2022/04/04 04:37:37;;;;;;;8.18;6.13;;;;;;;3.64;64.20;101303.34;10523260;28;20107;-77
2022/04/04 04:42:39;;;;;;;10.07;5.60;;;;;;;3.75;63.28;101297.25;10541559;28;20063;-76
2022/04/04 04:47:41;;;;;;;7.43;3.95;;;;;;;3.81;63.71;101287.41;10522871;28;20040;-77
2022/04/04 04:52:46;;;;;;;5.32;2.42;;;;;;;3.87;63.82;101269.03;10538991;28;20052;-76
2022/04/04 04:57:49;;;;;;;4.40;2.45;;;;;;;3.87;63.47;101270.72;10521400;28;20060;-76
2022/04/04 05:08:29;;;;;;;5.82;3.22;;;;;;;3.88;63.57;101244.44;10464971;28;20091;-76
2022/04/04 05:13:31;;;;;;;5.55;3.05;;;;;;;3.93;63.58;101231.19;10522138;28;20121;-76
2022/04/04 05:18:39;;;;;;;;;;;;;;;3.78;64.06;101220.94;10610738;27;20454;-76
2022/04/04 05:23:41;;;;;;;5.53;2.83;;;;;;;4.08;64.27;101205.66;10597620;28;19954;-76
2022/04/04 05:28:44;;;;;;;7.32;4.47;;;;;;;4.02;64.53;101199.34;10617845;28;20035;-77
2022/04/04 05:33:45;;;;;;;7.38;3.80;;;;;;;3.92;65.09;101196.28;10596969;28;20035;-76
2022/04/04 05:38:50;;;;;;;4.63;2.78;;;;;;;4.20;64.72;101181.69;10559947;28;20078;-76
2022/04/04 05:43:51;;;;;;;6.10;3.95;;;;;;;4.42;62.61;101166.78;10592695;28;20066;-77
2022/04/04 05:48:53;;;;;;;8.85;4.93;;;;;;;4.71;61.66;101153.81;10574098;28;20095;-76
2022/04/04 05:53:55;;;;;;;5.78;3.20;;;;;;;4.73;61.96;101142.03;10583969;28;20465;-76
2022/04/04 05:58:58;;;;;;;7.07;4.20;;;;;;;4.89;61.43;101133.50;10596904;28;20105;-76
2022/04/04 06:04:00;;;;;;;10.25;6.05;;;;;;;4.81;62.34;101114.34;10601020;28;20118;-75
2022/04/04 06:09:02;;;;;;;4.32;2.88;;;;;;;5.04;62.23;101131.75;10613852;28;20042;-77
2022/04/04 06:14:03;;;;;;;5.45;3.47;;;;;;;4.93;62.97;101107.34;10595566;28;20065;-76
2022/04/04 06:19:05;;;;;;;6.20;4.07;;;;;;;4.80;63.20;101104.94;10613619;28;20051;-77
2022/04/04 06:24:06;;;;;;;5.20;3.05;;;;;;;4.86;63.06;101102.72;10613027;28;20067;-77
2022/04/04 06:29:10;;;;;;;5.75;3.58;;;;;;;4.97;63.36;101100.72;10590629;28;20050;-77
2022/04/04 06:34:12;;;;;;;5.30;3.60;;;;;;;4.96;62.23;101094.72;10549980;28;20071;-77
2022/04/04 06:39:14;;;;;;;10.60;5.72;;;;;;;4.99;62.22;101079.56;10563808;28;20093;-78
2022/04/04 06:44:16;;;;;;;9.52;5.25;;;;;;;5.22;62.36;101070.50;10565585;28;20043;-76
2022/04/04 06:49:24;;;;;;;4.75;2.97;;;;;;;5.48;61.81;101070.03;10566402;28;20044;-77
2022/04/04 06:54:27;;;;;;;5.15;3.60;;;;;;;5.52;61.00;101051.53;10548407;28;20142;-76
2022/04/04 06:59:30;;;;;;;7.50;4.22;;;;;;;5.37;61.93;101052.53;10548067;28;20096;-76
2022/04/04 07:04:32;;;;;;;6.32;3.92;;;;;;;5.65;61.63;101033.41;10564334;28;20077;-76
2022/04/04 07:09:35;;;;;;;9.25;5.93;;;;;;;5.46;61.43;101035.91;10583473;28;20130;-77
2022/04/04 07:14:36;;;;;;;7.10;4.80;;;;;;;5.50;63.30;101023.34;10564976;28;20135;-76
2022/04/04 07:19:38;;;;;;;8.98;5.50;;;;;;;5.50;62.34;101014.78;10548599;28;20067;-77
2022/04/04 07:24:40;;;;;;;7.75;4.93;;;;;;;5.61;62.45;100999.97;10565257;28;20047;-77
2022/04/04 07:29:42;;;;;;;7.45;5.28;;;;;;;5.47;63.07;100974.63;10549723;28;20051;-76
2022/04/04 07:34:43;;;;;;;8.88;4.30;;;;;;;5.62;64.60;100971.06;10564441;28;20456;-77
2022/04/04 07:39:45;;;;;;;7.30;5.03;;;;;;;5.59;63.96;100964.13;10581892;28;20123;-76
2022/04/04 07:44:47;;;;;;;9.07;6.28;;;;;;;5.59;64.65;100953.00;10563779;28;20040;-76
2022/04/04 07:49:49;;;;;;;8.20;4.47;;;;;;;5.75;65.82;100952.06;10563700;28;20070;-78
2022/04/04 07:54:51;;;;;;;7.00;4.70;;;;;;;5.76;65.68;100933.34;10563280;28;20039;-76
2022/04/04 07:59:53;;;;;;;6.15;3.75;;;;;;;5.91;66.31;100934.06;10563961;28;20068;-75
2022/04/04 08:04:54;;;;;;;8.50;6.07;;;;;;;5.56;67.11;100915.41;10546424;28;20082;-76
2022/04/04 08:09:55;;;;;;;7.40;5.57;;;;;;;5.64;66.93;100908.97;10581912;28;20101;-76
2022/04/04 08:14:57;;;;;;;8.45;6.15;;;;;;;5.71;66.73;100905.88;10546462;28;20082;-76
2022/04/04 08:19:59;;;;;;;8.68;5.40;;;;;;;5.77;66.76;100889.09;10580311;28;20048;-77
2022/04/04 08:25:00;;;;;;;8.52;5.30;;;;;;;5.89;66.84;100894.75;10560592;28;20050;-79
2022/04/04 08:30:05;;;;;;;9.35;5.88;;;;;;;6.06;66.23;100876.75;10559979;28;20096;-77
2022/04/04 08:35:11;;;;;;;7.38;5.95;;;;;;;6.02;67.13;100860.41;10577806;28;20051;-78
2022/04/04 08:40:14;;;;;;;7.32;5.97;;;;;;;5.97;65.75;100857.63;10539926;28;20101;-78
2022/04/04 08:45:16;;;;;;;8.93;6.38;;;;;;;6.05;65.75;100836.66;10541816;28;20043;-81
2022/04/04 08:50:18;;;;;;;9.18;4.78;;;;;;;6.29;65.31;100835.09;10559929;28;20049;-79
2022/04/04 08:55:20;;;;;;;9.82;6.45;;;;;;;6.26;64.63;100837.56;10541750;28;20505;-78
2022/04/04 09:00:22;;;;;;;8.77;5.25;;;;;;;6.49;63.96;100804.38;10559367;28;20039;-77
2022/04/04 09:05:24;;;;;;;9.90;5.40;;;;;;;6.72;63.17;100812.97;10577030;28;20454;-80
2022/04/04 09:10:31;;;;;;;7.82;5.57;;;;;;;6.69;62.04;100794.06;10542090;28;20487;-79
2022/04/04 09:15:48;;;;;;;7.80;5.75;;;;;;;6.55;62.14;100796.94;10557938;28;20448;-79
2022/04/04 09:20:51;;;;;;;10.23;6.38;;;;;;;6.79;61.65;100780.81;10558704;28;20043;-78
2022/04/04 09:25:53;;;;;;;7.97;6.03;;;;;;;6.91;61.35;100778.72;10558718;28;20056;-78
2022/04/04 09:31:08;;;;;;;6.22;4.35;;;;;;;7.01;61.17;100774.81;10557976;28;20052;-80
2022/04/04 09:36:12;;;;;;;9.40;4.97;;;;;;;6.93;62.08;100768.53;10575763;28;20048;-78
2022/04/04 09:41:14;;;;;;;5.80;3.88;;;;;;;6.82;63.73;100786.03;10576322;28;20093;-79
2022/04/04 09:46:16;;;;;;;11.20;7.32;;;;;;;6.52;65.19;100771.22;10557636;28;20498;-78
2022/04/04 09:51:42;;;;;;;9.00;5.47;;;;;;;6.50;67.14;100773.72;10539852;28;20116;-80
2022/04/04 09:56:46;;;;;;;5.30;3.42;;;;;;;6.53;68.82;100759.31;10556912;28;20040;-79
2022/04/04 10:01:48;;;;;;;6.90;3.95;;;;;;;6.33;69.39;100760.25;10577391;28;20039;-79
2022/04/04 10:06:51;;;;;;;12.43;7.35;;;;;;;6.25;70.72;100746.25;10564940;28;20047;-79
2022/04/04 10:11:53;;;;;;;10.18;7.07;;;;;;;6.24;72.02;100743.66;10583777;28;20043;-79
2022/04/04 10:16:56;;;;;;;9.55;6.35;;;;;;;6.43;72.95;100735.03;10564728;28;20131;-80
2022/04/04 10:21:58;;;;;;;9.65;5.88;;;;;;;6.50;73.06;100742.13;10563844;28;20082;-79
2022/04/04 10:27:00;;;;;;;11.57;8.88;;;;;;;6.16;72.26;100721.19;10546956;28;20491;-80
2022/04/04 10:32:03;;;;;;;12.23;8.68;;;;;;;7.44;66.07;100716.59;10523408;28;20075;-80
2022/04/04 10:37:09;;;;;;;7.95;5.75;;;;;;;7.33;67.91;100715.38;10564480;28;20078;-80
2022/04/04 10:42:26;;;;;;;13.20;9.82;;;;;;;7.16;68.22;100707.94;10547105;28;20044;-79
2022/04/04 10:47:40;;;;;;;14.23;10.20;;;;;;;7.09;69.47;100703.41;10582527;28;20028;-80
2022/04/04 10:52:43;;;;;;;13.35;9.80;;;;;;;6.86;70.16;100688.06;10582279;28;20043;-80
2022/04/04 10:57:45;;;;;;;10.52;7.82;;;;;;;7.22;70.58;100690.22;10581935;28;20496;-79
2022/04/04 11:02:52;;;;;;;14.48;8.90;;;;;;;7.29;71.13;100686.19;10563594;28;20502;-80
2022/04/04 11:07:58;;;;;;;12.63;9.35;;;;;;;6.90;70.31;100658.31;10562951;28;20086;-82
2022/04/04 11:13:04;;;;;;;14.98;10.32;;;;;;;7.37;70.24;100663.38;10562472;28;20096;-80
2022/04/04 11:18:05;;;;;;;12.32;10.02;;;;;;;7.13;70.22;100654.91;10563173;28;20097;-80
2022/04/04 11:23:11;;;;;;;12.35;8.88;;;;;;;7.17;70.46;100661.00;10580706;28;20047;-80
2022/04/04 11:28:15;;;;;;;9.93;5.53;;;;;;;7.35;70.30;100649.63;10552093;28;20055;-80
2022/04/04 11:33:22;;;;;;;13.70;9.73;;;;;;;7.50;69.23;100650.16;10579439;28;20397;-80
2022/04/04 11:38:25;;;;;;;10.07;7.63;;;;;;;7.38;69.25;100629.25;10562961;28;20050;-81
2022/04/04 11:43:31;;;;;;;13.60;8.60;;;;;;;7.43;70.44;100622.59;10563435;28;20494;-81
2022/04/04 11:48:39;;;;;;;10.98;7.78;;;;;;;7.47;70.62;100611.63;10562211;28;20572;-80
2022/04/04 11:53:43;;;;;;;12.85;8.15;;;;;;;7.42;71.35;100610.59;10579781;28;20096;-80
2022/04/04 11:58:54;;;;;;;9.32;6.07;;;;;;;7.63;71.13;100608.75;10561822;28;20048;-80
2022/04/04 12:03:56;;;;;;;10.48;7.30;;;;;;;7.60;71.30;100598.41;10546655;28;20044;-77
2022/04/04 12:09:03;;;;;;;12.40;8.15;;;;;;;7.31;71.57;100597.41;10564008;28;20387;-77
2022/04/04 12:14:11;;;;;;;10.27;8.88;;;;;;;7.34;71.85;100596.63;10563066;28;20051;-78
2022/04/04 12:19:12;;;;;;;10.65;8.40;;;;;;;7.41;71.89;100585.81;10563714;28;20066;-77
2022/04/04 12:29:44;;;;;;;9.18;6.15;;;;;;;7.40;73.94;100581.50;10556649;28;20096;-81
2022/04/04 12:34:58;;;;;;;9.75;6.85;;;;;;;7.42;74.67;100564.44;10572506;28;20031;-80
2022/04/04 12:40:25;;;;;;;10.02;6.90;;;;;;;7.49;73.60;100538.19;10557182;28;20079;-80
2022/04/04 12:45:30;;;;;;;9.38;7.13;;;;;;;7.51;74.65;100544.25;10577826;28;20043;-79
2022/04/04 12:50:47;;;;;;;5.72;3.97;;;;;;;7.70;73.79;100539.72;10559409;28;20043;-80
2022/04/04 12:56:06;;;;;;;10.55;7.97;;;;;;;7.82;72.20;100539.25;10559802;28;20097;-80
2022/04/04 13:01:16;;;;;;;7.88;5.63;;;;;;;7.90;73.11;100528.41;10540982;28;20065;-81
2022/04/04 13:06:19;;;;;;;9.00;5.32;;;;;;;7.74;73.40;100533.88;10559199;28;20445;-80
2022/04/04 13:11:23;;;;;;;9.38;7.40;;;;;;;7.41;74.56;100521.72;10577504;28;20088;-84
2022/04/04 13:16:48;;;;;;;7.07;5.03;;;;;;;7.45;73.98;100513.31;10516795;28;20078;-81
2022/04/04 13:21:51;;;;;;;8.50;6.72;;;;;;;7.74;73.53;100510.78;10561785;28;20615;-81
2022/04/04 13:26:53;;;;;;;7.90;5.93;;;;;;;7.67;73.94;100503.72;10575612;28;20088;-81
2022/04/04 13:31:54;;;;;;;8.63;5.75;;;;;;;7.61;74.70;100502.72;10558335;28;20577;-81
2022/04/04 13:36:55;;;;;;;11.02;8.73;;;;;;;7.51;73.89;100503.25;10542329;28;20406;-80
2022/04/04 13:41:57;;;;;;;9.00;6.45;;;;;;;7.90;74.00;100502.75;10562081;28;20131;-80
2022/04/04 13:46:59;;;;;;;9.45;7.30;;;;;;;7.54;75.10;100487.09;10584590;28;20051;-82
2022/04/04 13:52:02;;;;;;;9.15;7.10;;;;;;;7.57;75.11;100488.03;10562722;28;20043;-83
2022/04/04 13:57:04;;;;;;;8.93;6.15;;;;;;;7.82;74.63;100473.44;10584309;28;20108;-80
2022/04/04 14:02:05;;;;;;;7.95;5.93;;;;;;;8.04;74.30;100466.38;10547714;28;20035;-81
2022/04/04 14:07:08;;;;;;;8.80;6.18;;;;;;;7.87;74.87;100464.16;10582678;28;20100;-81
2022/04/04 14:12:10;;;;;;;5.75;4.15;;;;;;;8.14;74.72;100453.00;10563353;28;20090;-80
2022/04/04 14:17:13;;;;;;;6.43;5.05;;;;;;;7.88;75.04;100447.09;10583617;28;20089;-83
2022/04/04 14:22:15;;;;;;;9.55;6.97;;;;;;;7.90;75.31;100451.44;10578505;28;20043;-83
2022/04/04 14:27:17;;;;;;;6.05;3.78;;;;;;;8.19;74.66;100448.84;10556593;28;20073;-80
2022/04/04 14:32:19;;;;;;;4.00;2.78;;;;;;;8.16;75.25;100443.63;10581722;28;20127;-81
2022/04/04 14:37:21;;;;;;;7.68;6.35;;;;;;;8.14;74.34;100442.72;10570442;28;20043;-82
2022/04/04 14:42:22;;;;;;;7.38;4.82;;;;;;;8.25;74.23;100433.63;10543742;28;20131;-80
2022/04/04 14:47:24;;;;;;;4.43;3.05;;;;;;;8.06;75.83;100431.38;10556169;28;20071;-81
2022/04/04 14:52:30;;;;;;;7.43;5.97;;;;;;;8.53;74.53;100413.84;10560907;28;20567;-81
2022/04/04 14:57:32;;;;;;;5.35;3.88;;;;;;;8.65;74.48;100427.84;10545876;28;20402;-83
2022/04/04 15:02:36;;;;;;;6.38;4.57;;;;;;;6.48;81.50;100440.06;10559406;28;20047;-80
2022/04/04 15:07:58;;;;;;;5.43;3.83;;;;;;;7.35;80.79;100411.31;10581947;28;20036;-81
2022/04/04 15:12:59;;;;;;;5.15;2.95;;;;;;;7.26;81.71;100420.44;10583890;28;20614;-81
2022/04/04 15:18:01;;;;;;;5.47;4.50;;;;;;;7.29;81.08;100404.31;10547871;28;20078;-79
2022/04/04 15:23:10;;;;;;;5.63;3.40;;;;;;;7.35;81.07;100385.69;10564421;28;20043;-81
2022/04/04 15:28:11;;;;;;;4.90;3.35;;;;;;;7.54;80.99;100400.81;10561688;28;20035;-81
2022/04/04 15:33:13;;;;;;;4.63;4.00;;;;;;;7.41;80.87;100388.47;10555438;28;20043;-83
2022/04/04 15:38:15;;;;;;;5.47;3.50;;;;;;;7.59;80.87;100390.69;10563760;28;20514;-82
2022/04/04 15:43:24;;;;;;;6.95;4.80;;;;;;;7.48;81.22;100385.25;10545364;28;20551;-84
2022/04/04 15:48:27;;;;;;;7.28;4.68;;;;;;;7.65;81.36;100377.16;10546422;28;20050;-82
2022/04/04 15:53:30;;;;;;;5.80;4.32;;;;;;;7.71;81.00;100367.97;10581128;28;20044;-81
2022/04/04 15:58:32;;;;;;;9.18;6.00;;;;;;;7.63;81.38;100375.41;10579660;28;20160;-81
2022/04/04 16:03:34;;;;;;;5.88;4.03;;;;;;;7.96;79.21;100366.13;10562152;28;20051;-81
2022/04/04 16:08:36;;;;;;;6.38;4.20;;;;;;;8.08;79.89;100363.00;10561907;28;20055;-82
2022/04/04 16:13:38;;;;;;;4.75;3.03;;;;;;;8.20;79.34;100358.22;10561504;28;20054;-83
2022/04/04 16:18:40;;;;;;;4.93;3.30;;;;;;;8.18;79.71;100364.13;10579957;28;20150;-82
2022/04/04 16:23:43;;;;;;;4.10;2.95;;;;;;;8.29;79.39;100366.97;10561405;28;20046;-83
2022/04/04 16:28:45;;;;;;;5.32;3.63;;;;;;;8.29;79.87;100377.25;10545072;28;20456;-82
2022/04/04 16:33:47;;;;;;;6.32;4.68;;;;;;;8.06;80.59;100377.50;10543153;28;20130;-82
2022/04/04 16:38:49;;;;;;;6.47;4.22;;;;;;;8.30;80.28;100379.00;10578711;28;20039;-83
2022/04/04 16:43:51;;;;;;;3.47;2.30;;;;;;;8.32;79.77;100372.19;10560440;28;20044;-82
2022/04/04 16:48:53;;;;;;;5.90;4.25;;;;;;;8.39;80.02;100374.06;10561451;28;20554;-83
2022/04/04 16:53:54;;;;;;;6.30;4.70;;;;;;;8.36;79.32;100376.59;10559943;28;20059;-81
2022/04/04 16:58:56;;;;;;;4.57;2.90;;;;;;;8.59;79.78;100381.47;10558545;28;20486;-82
2022/04/04 17:03:59;;;;;;;4.00;2.80;;;;;;;8.31;79.73;100380.69;10576163;28;20077;-81
2022/04/04 17:09:00;;;;;;;1.95;1.40;;;;;;;8.50;80.14;100377.84;10558392;28;20121;-82
2022/04/04 17:14:06;;;;;;;2.15;1.55;;;;;;;8.64;79.46;100390.16;10557869;28;20052;-85
2022/04/04 17:19:08;;;;;;;7.65;5.07;;;;;;;8.50;79.54;100374.38;10558718;28;20444;-84
2022/04/04 17:24:15;;;;;;;3.45;2.58;;;;;;;8.62;80.07;100378.97;10558756;28;20063;-84
2022/04/04 17:29:17;;;;;;;5.43;3.40;;;;;;;8.57;79.56;100374.59;10560008;28;20096;-87
2022/04/04 17:34:19;;;;;;;4.15;3.15;;;;;;;8.61;79.30;100382.38;10542159;28;20092;-87
2022/04/04 17:39:21;;;;;;;6.13;3.75;;;;;;;11.38;66.52;100355.22;10542267;28;20449;-88
2022/04/04 17:44:25;;;;;;;3.88;2.30;;;;;;;10.62;69.55;100363.50;10560256;28;20039;-88
2022/04/04 17:49:29;;;;;;;2.72;1.80;;;;;;;10.50;70.60;100361.56;10538818;28;20093;-86
2022/04/04 17:54:33;;;;;;;2.53;1.50;;;;;;;10.34;71.06;100373.28;10540418;28;20040;-89
2022/04/04 17:59:34;;;;;;;5.13;3.58;;;;;;;10.12;72.15;100362.59;10524168;28;20062;-87
2022/04/04 18:04:36;;;;;;;8.02;5.25;;;;;;;9.76;73.35;100361.03;10551536;28;20047;-87
2022/04/04 18:09:38;;;;;;;4.32;3.15;;;;;;;9.97;72.55;100358.03;10546684;28;20040;-88
2022/04/04 18:14:39;;;;;;;7.30;5.07;;;;;;;9.89;73.20;100358.69;10541074;28;20051;-88
2022/04/04 18:19:41;;;;;;;0.55;0.28;;;;;;;10.34;71.53;100362.97;10559186;28;20052;-86
2022/04/04 18:24:42;;;;;;;6.45;4.75;;;;;;;9.82;73.25;100344.84;10571683;27;20171;-87
2022/04/04 18:29:44;;;;;;;3.60;2.30;;;;;;;10.28;72.43;100358.56;10567237;28;20479;-88
2022/04/04 18:34:49;;;;;;;4.80;3.08;;;;;;;10.10;72.53;100364.25;10549615;28;20040;-89
2022/04/04 18:39:53;;;;;;;3.90;1.95;;;;;;;10.43;71.98;100364.88;10560916;28;20075;-88
2022/04/04 18:44:56;;;;;;;4.50;2.67;;;;;;;9.99;73.47;100360.63;10550389;28;20051;-86
2022/04/04 18:50:01;;;;;;;6.13;3.75;;;;;;;10.40;72.21;100364.84;10551697;28;20513;-87
2022/04/04 18:55:04;;;;;;;0.80;0.50;;;;;;;10.79;71.15;100364.66;10550260;28;20394;-86
2022/04/04 19:00:08;;;;;;;8.38;5.32;;;;;;;10.23;72.67;100356.78;10543680;28;20044;-87
2022/04/04 19:05:11;;;;;;;5.03;3.03;;;;;;;10.50;71.23;100361.56;10552262;28;20564;-89
2022/04/04 19:10:17;;;;;;;2.95;1.50;;;;;;;10.94;70.74;100360.59;10572106;28;20490;-84
2022/04/04 19:15:19;;;;;;;1.17;0.70;;;;;;;8.68;80.56;100373.97;10567221;28;20047;-87
2022/04/04 19:20:27;;;;;;;10.30;6.07;;;;;;;8.71;80.83;100379.22;10552586;28;20044;-88
2022/04/04 19:25:29;;;;;;;5.47;3.20;;;;;;;9.20;79.27;100385.53;10567277;28;20116;-88
2022/04/04 19:30:31;;;;;;;1.92;1.10;;;;;;;9.20;78.93;100382.94;10566722;28;20051;-87
2022/04/04 19:35:37;;;;;;;8.45;4.97;;;;;;;9.11;78.96;100376.72;10565729;28;20043;-85
2022/04/04 19:40:39;;;;;;;3.38;1.80;;;;;;;9.42;78.33;100375.72;10565109;28;20490;-87
2022/04/04 19:45:42;;;;;;;1.20;0.65;;;;;;;9.61;77.92;100373.56;10566711;28;20059;-86
2022/04/04 19:50:44;;;;;;;3.13;1.95;;;;;;;9.51;77.21;100375.94;10566371;28;20126;-86
2022/04/04 19:55:47;;;;;;;2.05;0.88;;;;;;;9.71;77.80;100370.38;10549604;28;20105;-85
2022/04/04 20:00:48;;;;;;;6.18;3.80;;;;;;;9.69;77.27;100372.03;10583098;28;20047;-86
2022/04/04 20:05:50;;;;;;;0.43;0.43;;;;;;;9.99;76.73;100374.34;10567495;28;20047;-85
2022/04/04 20:10:54;;;;;;;5.70;3.40;;;;;;;9.80;76.80;100380.81;10550308;28;20620;-86
2022/04/04 20:16:02;;;;;;;3.70;2.40;;;;;;;9.93;76.89;100370.78;10564590;28;20115;-86
2022/04/04 20:21:04;;;;;;;0.45;0.32;;;;;;;10.19;76.16;100370.41;10546285;28;20051;-87
2022/04/04 20:26:06;;;;;;;3.95;2.60;;;;;;;9.96;77.25;100370.84;10563658;28;20047;-85
2022/04/04 20:31:08;;;;;;;0.95;0.52;;;;;;;10.20;75.98;100360.13;10545746;28;20052;-85
2022/04/04 20:36:10;;;;;;;0.80;0.63;;;;;;;10.22;76.47;100350.75;10562664;28;20105;-85
2022/04/04 20:41:14;;;;;;;1.15;0.47;;;;;;;10.25;76.24;100348.25;10563679;28;20063;-85
2022/04/04 20:46:16;;;;;;;1.50;0.90;;;;;;;9.94;77.83;100346.81;10563776;28;20452;-84
2022/04/04 20:51:20;;;;;;;2.40;1.58;;;;;;;9.96;77.88;100340.84;10564658;28;20065;-85
2022/04/04 20:56:21;;;;;;;6.93;4.38;;;;;;;10.09;77.42;100330.78;10561255;28;20142;-85
2022/04/04 21:01:23;;;;;;;11.05;5.63;;;;;;;10.14;77.50;100329.13;10538528;28;20051;-84
2022/04/04 21:06:25;;;;;;;1.20;0.82;;;;;;;10.53;76.42;100323.00;10546586;28;20122;-85
2022/04/04 21:11:27;;;;;;;6.25;3.28;;;;;;;10.26;76.83;100310.47;10545481;28;20126;-84
2022/04/04 21:16:30;;;;;;;4.68;2.67;;;;;;;10.30;76.74;100314.84;10563183;28;20047;-86
2022/04/04 21:21:32;;;;;;;9.93;5.75;;;;;;;10.14;77.87;100309.44;10548196;28;20502;-85
2022/04/04 21:26:34;;;;;;;8.50;4.72;;;;;;;10.26;77.42;100302.75;10546918;28;20048;-85
2022/04/04 21:31:35;;;;;;;7.47;4.88;;;;;;;10.15;77.27;100300.88;10547947;28;20397;-85
2022/04/04 21:36:42;;;;;;;3.17;1.38;;;;;;;10.47;76.87;100292.84;10565885;28;20111;-84
2022/04/04 21:41:48;;;;;;;6.05;3.63;;;;;;;13.41;63.29;100276.13;10581025;28;20084;-85
2022/04/04 21:46:50;;;;;;;0.75;0.10;;;;;;;13.54;63.89;100280.50;10547463;28;20039;-85
2022/04/04 21:51:52;;;;;;;5.78;3.60;;;;;;;12.46;67.17;100277.25;10558989;28;20137;-85
2022/04/04 21:56:53;;;;;;;4.15;2.30;;;;;;;12.45;68.43;100280.69;10562569;28;20085;-85
2022/04/04 22:01:58;;;;;;;4.00;2.50;;;;;;;12.40;68.22;100287.53;10567225;28;20603;-84
2022/04/04 22:07:00;;;;;;;2.40;1.48;;;;;;;12.61;68.04;100286.81;10567626;28;20078;-84
2022/04/04 22:12:02;;;;;;;3.72;2.05;;;;;;;12.60;68.22;100280.81;10584643;28;20047;-85
2022/04/04 22:17:04;;;;;;;0.57;0.47;;;;;;;12.73;67.93;100284.34;10557099;28;20066;-84
2022/04/04 22:22:06;;;;;;;0.08;0.05;;;;;;;13.01;67.00;100279.34;10564178;28;20047;-83
2022/04/04 22:27:07;;;;;;;0.38;0.38;;;;;;;13.12;65.85;100276.81;10582031;28;20044;-84
2022/04/04 22:32:11;;;;;;;0.00;0.00;;;;;;;13.73;64.39;100280.56;10546691;28;20047;-82
2022/04/04 22:37:12;;;;;;;0.00;0.00;;;;;;;13.42;65.58;100280.44;10582291;28;20055;-82
2022/04/04 22:42:14;;;;;;;2.13;0.73;;;;;;;11.99;70.45;100312.97;10563443;28;20505;-82
2022/04/04 22:47:18;;;;;;;1.10;0.90;;;;;;;11.79;69.98;100317.03;10568669;28;20533;-84
2022/04/04 22:52:19;;;;;;;0.10;0.10;;;;;;;11.85;69.14;100328.25;10582679;28;20051;-83
2022/04/04 22:57:21;;;;;;;0.00;0.00;;;;;;;11.78;69.65;100326.47;10563465;28;20313;-84
2022/04/04 23:02:23;;;;;;;0.00;0.00;;;;;;;11.81;68.91;100336.84;10562431;28;20071;-84
2022/04/04 23:07:24;;;;;;;0.00;0.00;;;;;;;11.61;69.79;100338.31;10580479;28;20491;-85
2022/04/04 23:12:26;;;;;;;0.00;0.00;;;;;;;10.96;71.14;100333.13;10579890;28;20044;-85
2022/04/04 23:17:28;;;;;;;0.00;0.00;;;;;;;12.11;67.98;100344.91;10562158;28;20051;-85
2022/04/04 23:22:30;;;;;;;0.00;0.00;;;;;;;11.52;69.40;100345.09;10561054;28;20048;-85
2022/04/04 23:27:31;;;;;;;0.15;0.15;;;;;;;12.25;67.04;100348.50;10579959;28;20176;-85
2022/04/04 23:32:33;;;;;;;0.00;0.00;;;;;;;12.37;66.53;100346.06;10544404;28;20059;-85